Bloedel, Canada
Current Conditions -  °F | °C
As of 6:00 AM on Saturday 25 Oct 2014 (Local Time) from CYBL Reporting Station
Light Rain Light Rain  
Wind Chill: 45°   Ceiling: 3500
Heat Index: 45°   Visibility: 4mi
Dew Point: 45°   Wind: 2mph
Humidity: 100%   Direction: 310°NW
Pressure: 29.6"   Gusts: NA
Location:  50.12°N, 125.38°W
Report Text: CYBL 251300Z 31002KT 4SM -RA BR FEW007 OVC035 07/07 A2960 RMK SF1SC7 SLP025
Loading
Personal Weather Stations






























Interactive Weather Map
Tropical Storm Tracking
New forecast layout! Learn more

10-Day Weather Forecast

Advertisements
Track Severe Weather on mobile